createdAt,value
2022-11-03T00:02:10.531Z,3.73
2022-11-03T00:04:39.253Z,3.57
2022-11-03T00:07:07.843Z,3.53
2022-11-03T00:09:37.679Z,3.47
2022-11-03T00:12:06.297Z,3.13
2022-11-03T00:14:34.890Z,3.43
2022-11-03T00:17:04.467Z,2.87
2022-11-03T00:19:33.019Z,2.90
2022-11-03T00:22:01.797Z,3.67
2022-11-03T00:24:30.534Z,3.37
2022-11-03T00:27:03.928Z,2.67
2022-11-03T00:29:32.460Z,2.93
2022-11-03T00:32:01.770Z,3.10
2022-11-03T00:34:30.797Z,3.07
2022-11-03T00:37:00.590Z,3.20
2022-11-03T00:39:29.291Z,2.83
2022-11-03T00:41:57.962Z,2.97
2022-11-03T00:44:28.466Z,3.00
2022-11-03T00:46:56.960Z,3.87
2022-11-03T00:49:25.504Z,3.07
2022-11-03T00:51:54.034Z,3.17
2022-11-03T00:54:22.991Z,3.80
2022-11-03T00:56:51.592Z,3.30
2022-11-03T00:59:20.022Z,3.63
2022-11-03T01:01:50.161Z,3.60
2022-11-03T01:04:36.559Z,3.83
2022-11-03T01:07:06.903Z,3.67
2022-11-03T01:09:38.554Z,3.43
2022-11-03T01:12:08.611Z,3.83
2022-11-03T01:14:41.080Z,4.13
2022-11-03T01:17:13.338Z,3.13
2022-11-03T01:19:42.345Z,3.80
2022-11-03T01:22:11.432Z,4.10
2022-11-03T01:24:40.611Z,4.60
2022-11-03T01:27:09.634Z,4.63
2022-11-03T01:29:38.514Z,3.80
2022-11-03T01:32:08.480Z,3.70
2022-11-03T01:34:38.688Z,4.10
2022-11-03T01:37:07.402Z,4.03
2022-11-03T01:39:36.005Z,3.90
2022-11-03T01:42:04.592Z,3.67
2022-11-03T01:44:36.167Z,3.73
2022-11-03T01:47:17.606Z,3.53
2022-11-03T01:49:51.232Z,3.47
2022-11-03T01:52:24.516Z,3.60
2022-11-03T01:54:57.600Z,4.20
2022-11-03T01:57:30.423Z,3.83
2022-11-03T02:00:00.761Z,3.30
2022-11-03T02:02:29.436Z,3.90
2022-11-03T02:05:01.863Z,3.87
2022-11-03T02:07:36.365Z,3.83
2022-11-03T02:10:06.285Z,3.60
2022-11-03T02:12:35.951Z,3.90
2022-11-03T02:15:07.767Z,3.90
2022-11-03T02:17:38.575Z,4.17
2022-11-03T02:20:12.419Z,3.67
2022-11-03T02:23:19.452Z,3.93
2022-11-03T02:25:51.964Z,4.03
2022-11-03T02:28:22.849Z,4.03
2022-11-03T02:31:05.617Z,3.83
2022-11-03T02:33:50.071Z,3.33
2022-11-03T02:36:24.404Z,4.20
2022-11-03T02:38:58.940Z,4.13
2022-11-03T02:41:29.976Z,3.93
2022-11-03T02:43:58.694Z,3.83
2022-11-03T02:46:29.297Z,4.53
2022-11-03T02:48:58.076Z,3.87
2022-11-03T02:51:28.092Z,4.33
2022-11-03T02:54:05.805Z,4.60
2022-11-03T02:56:41.560Z,3.60
2022-11-03T02:59:12.908Z,4.50
2022-11-03T03:01:48.355Z,4.03
2022-11-03T03:04:22.333Z,4.63
2022-11-03T03:06:55.555Z,3.93
2022-11-03T03:09:28.736Z,4.03
2022-11-03T03:12:01.492Z,4.33
2022-11-03T03:14:34.139Z,4.00
2022-11-03T03:17:05.547Z,4.00
2022-11-03T03:19:46.928Z,4.10
2022-11-03T03:22:22.543Z,3.80
2022-11-03T03:24:57.545Z,4.20
2022-11-03T03:27:29.864Z,4.30
2022-11-03T03:30:02.569Z,4.03
2022-11-03T03:32:34.969Z,3.63
2022-11-03T03:35:07.637Z,4.70
2022-11-03T03:37:38.980Z,4.13
2022-11-03T03:40:13.062Z,3.83
2022-11-03T03:42:48.226Z,4.50
2022-11-03T03:45:18.062Z,4.10
2022-11-03T03:47:46.648Z,4.47
2022-11-03T03:50:15.175Z,4.50
2022-11-03T03:52:43.690Z,4.57
2022-11-03T03:55:18.993Z,3.97
2022-11-03T03:57:48.814Z,3.97
2022-11-03T04:00:19.400Z,3.50
2022-11-03T04:02:50.577Z,4.30
2022-11-03T04:05:19.065Z,3.73
2022-11-03T04:07:51.570Z,4.33
2022-11-03T04:10:22.007Z,4.23
2022-11-03T04:13:09.757Z,4.10
2022-11-03T04:15:55.927Z,4.43
2022-11-03T04:18:41.741Z,4.03
2022-11-03T04:21:30.766Z,4.50
2022-11-03T04:24:00.436Z,4.13
2022-11-03T04:26:30.297Z,4.27
2022-11-03T04:29:00.296Z,4.33
2022-11-03T04:31:30.281Z,4.23
2022-11-03T04:33:58.997Z,4.57
2022-11-03T04:36:27.536Z,5.37
2022-11-03T04:38:55.961Z,4.23
2022-11-03T04:41:25.774Z,5.03
2022-11-03T04:43:54.618Z,4.00
2022-11-03T04:46:28.433Z,4.30
2022-11-03T04:49:00.563Z,4.37
2022-11-03T04:51:32.210Z,4.30
2022-11-03T04:54:04.831Z,4.40
2022-11-03T04:56:33.823Z,4.07
2022-11-03T04:59:02.291Z,4.23
2022-11-03T05:01:32.083Z,4.40
2022-11-03T05:04:00.787Z,4.30
2022-11-03T05:06:31.100Z,4.43
2022-11-03T05:09:01.856Z,4.40
2022-11-03T05:11:33.408Z,4.40
2022-11-03T05:14:04.773Z,3.97
2022-11-03T05:16:35.040Z,4.80
2022-11-03T05:19:03.867Z,4.30
2022-11-03T05:21:32.215Z,4.60
2022-11-03T05:24:11.614Z,4.80
2022-11-03T05:26:40.198Z,4.57
2022-11-03T05:29:15.710Z,4.67
2022-11-03T05:31:47.742Z,4.63
2022-11-03T05:34:36.322Z,5.43
2022-11-03T05:37:26.860Z,4.43
2022-11-03T05:39:57.921Z,4.90
2022-11-03T05:42:33.810Z,4.60
2022-11-03T05:45:05.817Z,4.70
2022-11-03T05:47:38.886Z,5.30
2022-11-03T05:50:17.951Z,5.23
2022-11-03T05:52:48.309Z,5.03
2022-11-03T05:55:26.177Z,4.87
2022-11-03T05:57:56.611Z,4.17
2022-11-03T06:00:32.983Z,4.80
2022-11-03T06:03:03.278Z,4.80
2022-11-03T06:05:33.655Z,4.57
2022-11-03T06:08:03.459Z,5.67
2022-11-03T06:10:35.147Z,4.73
2022-11-03T06:13:07.111Z,4.80
2022-11-03T06:15:37.135Z,4.10
2022-11-03T06:18:16.161Z,5.03
2022-11-03T06:20:47.818Z,4.50
2022-11-03T06:23:18.381Z,4.87
2022-11-03T06:25:47.041Z,4.23
2022-11-03T06:28:24.068Z,5.10
2022-11-03T06:30:52.572Z,4.93
2022-11-03T06:33:26.160Z,4.47
2022-11-03T06:36:00.467Z,4.90
2022-11-03T06:38:31.189Z,4.70
2022-11-03T06:41:00.228Z,4.87
2022-11-03T06:43:37.458Z,4.87
2022-11-03T06:46:15.612Z,4.90
2022-11-03T06:48:46.699Z,4.70
2022-11-03T06:51:20.149Z,5.83
2022-11-03T06:53:49.278Z,7.17
2022-11-03T06:56:20.628Z,5.40
2022-11-03T06:58:49.462Z,5.87
2022-11-03T07:01:20.968Z,5.97
2022-11-03T07:03:51.984Z,6.60
2022-11-03T07:06:27.318Z,18.13
2022-11-03T07:08:59.898Z,9.97
2022-11-03T07:11:31.034Z,5.27
2022-11-03T07:14:01.427Z,5.87
2022-11-03T07:16:32.839Z,5.17
2022-11-03T07:19:04.382Z,5.90
2022-11-03T07:21:39.446Z,4.90
2022-11-03T07:24:16.703Z,5.17
2022-11-03T07:26:45.219Z,5.47
2022-11-03T07:29:22.031Z,5.83
2022-11-03T07:31:52.817Z,5.03
2022-11-03T07:34:26.192Z,5.20
2022-11-03T07:36:56.078Z,5.57
2022-11-03T07:39:25.193Z,5.90
2022-11-03T07:41:53.650Z,5.40
2022-11-03T07:44:23.065Z,5.70
2022-11-03T07:46:52.055Z,5.10
2022-11-03T07:49:27.987Z,5.23
2022-11-03T07:51:58.026Z,5.00
2022-11-03T07:54:30.087Z,5.80
2022-11-03T07:57:01.146Z,5.23
2022-11-03T07:59:34.312Z,5.23
2022-11-03T08:02:03.351Z,5.03
2022-11-03T08:04:35.676Z,6.67
2022-11-03T08:07:06.021Z,4.90
2022-11-03T08:09:34.964Z,4.90
2022-11-03T08:12:04.065Z,4.53
2022-11-03T08:14:32.756Z,5.47
2022-11-03T08:17:01.231Z,4.90
2022-11-03T08:19:31.237Z,5.00
2022-11-03T08:22:01.220Z,5.13
2022-11-03T08:24:29.730Z,4.70
2022-11-03T08:26:58.227Z,5.33
2022-11-03T08:29:27.479Z,5.90
2022-11-03T08:31:56.303Z,6.17
2022-11-03T08:34:25.044Z,6.77
2022-11-03T08:36:53.547Z,5.97
2022-11-03T08:39:24.019Z,5.50
2022-11-03T08:41:52.479Z,5.60
2022-11-03T08:44:20.894Z,5.30
2022-11-03T08:46:49.829Z,6.17
2022-11-03T08:49:18.188Z,5.07
2022-11-03T08:51:46.737Z,5.20
2022-11-03T08:54:15.037Z,4.87
2022-11-03T08:56:46.617Z,5.77
2022-11-03T08:59:18.124Z,6.00
2022-11-03T09:01:46.828Z,5.10
2022-11-03T09:04:15.922Z,5.73
2022-11-03T09:06:45.593Z,5.50
2022-11-03T09:12:04.740Z,5.90
2022-11-03T09:14:35.523Z,5.83
2022-11-03T09:17:06.144Z,5.10
2022-11-03T09:19:35.048Z,5.17
2022-11-03T09:22:04.413Z,5.50
2022-11-03T09:24:33.499Z,5.43
2022-11-03T09:27:02.559Z,5.27
2022-11-03T09:29:58.297Z,5.57
2022-11-03T09:32:23.780Z,7.87
2022-11-03T09:34:52.326Z,5.67
2022-11-03T09:37:22.064Z,5.60
2022-11-03T09:39:54.479Z,5.53
2022-11-03T09:42:23.609Z,5.13
2022-11-03T09:44:54.521Z,5.87
2022-11-03T09:47:26.752Z,5.17
2022-11-03T09:49:55.414Z,5.53
2022-11-03T09:52:25.351Z,5.07
2022-11-03T09:54:57.196Z,5.17
2022-11-03T09:57:27.454Z,5.43
2022-11-03T09:59:57.641Z,5.77
2022-11-03T10:02:29.692Z,5.27
2022-11-03T10:05:00.281Z,5.97
2022-11-03T10:07:32.166Z,6.13
2022-11-03T10:10:03.698Z,5.80
2022-11-03T10:12:37.761Z,5.23
2022-11-03T10:15:15.680Z,6.40
2022-11-03T10:17:45.018Z,5.53
2022-11-03T10:20:15.476Z,6.23
2022-11-03T10:22:49.041Z,5.87
2022-11-03T10:25:31.846Z,6.47
2022-11-03T10:28:15.263Z,5.17
2022-11-03T10:33:43.066Z,5.00
2022-11-03T10:36:25.455Z,6.30
2022-11-03T10:38:54.469Z,5.43
2022-11-03T10:41:24.275Z,6.17
2022-11-03T10:44:08.304Z,5.33
2022-11-03T10:46:54.797Z,5.60
2022-11-03T10:49:23.482Z,5.07
2022-11-03T10:51:54.159Z,4.83
2022-11-03T10:54:24.764Z,4.87
2022-11-03T10:56:53.841Z,5.77
2022-11-03T10:59:23.862Z,5.17
2022-11-03T11:01:53.874Z,5.67
2022-11-03T11:04:23.588Z,5.47
2022-11-03T11:06:52.717Z,5.73
2022-11-03T11:09:25.643Z,5.57
2022-11-03T11:12:01.901Z,6.15
2022-11-03T11:14:39.450Z,5.20
2022-11-03T11:17:42.165Z,5.60
2022-11-03T11:20:36.602Z,5.90
2022-11-03T11:23:52.491Z,5.80
2022-11-03T11:26:41.915Z,5.47
2022-11-03T11:29:46.176Z,5.85
2022-11-03T11:32:47.852Z,5.77
2022-11-03T11:35:38.599Z,5.17
2022-11-03T11:38:42.903Z,5.73
2022-11-03T11:41:11.527Z,5.90
2022-11-03T11:43:39.613Z,6.03
2022-11-03T11:46:40.914Z,5.10
2022-11-03T11:49:26.929Z,6.00
2022-11-03T11:52:03.065Z,5.50
2022-11-03T11:54:31.312Z,6.30
2022-11-03T11:56:59.672Z,6.15
2022-11-03T11:59:28.054Z,6.57
2022-11-03T12:01:57.756Z,6.32
2022-11-03T12:04:29.078Z,6.88
2022-11-03T12:06:58.834Z,6.22
2022-11-03T12:09:28.533Z,6.75
2022-11-03T12:12:00.705Z,6.60
2022-11-03T12:14:35.820Z,6.05
2022-11-03T12:17:35.210Z,6.55
2022-11-03T12:20:36.475Z,6.25
2022-11-03T12:23:06.051Z,7.20
2022-11-03T12:25:37.287Z,6.82
2022-11-03T12:28:06.583Z,6.97
2022-11-03T12:30:39.610Z,7.28
2022-11-03T12:33:08.909Z,7.85
2022-11-03T12:35:37.287Z,8.20
2022-11-03T12:38:06.803Z,9.85
2022-11-03T12:40:35.168Z,10.07
2022-11-03T12:43:04.268Z,9.93
2022-11-03T12:45:32.557Z,11.23
2022-11-03T12:48:01.550Z,11.02
2022-11-03T12:50:29.951Z,11.35
2022-11-03T12:52:58.348Z,9.68
2022-11-03T12:57:56.244Z,8.70
2022-11-03T13:00:24.601Z,8.52
2022-11-03T13:02:52.886Z,7.32
2022-11-03T13:05:21.081Z,8.13
2022-11-03T13:07:49.379Z,7.75
2022-11-03T13:10:17.914Z,6.97
2022-11-03T13:12:47.634Z,7.93
2022-11-03T13:15:16.295Z,6.93
2022-11-03T13:18:11.607Z,7.05
2022-11-03T13:20:33.415Z,5.82
2022-11-03T13:23:02.024Z,6.35
2022-11-03T13:25:30.508Z,5.85
2022-11-03T13:28:03.152Z,5.43
2022-11-03T13:30:31.405Z,5.53
2022-11-03T13:32:59.787Z,6.30
2022-11-03T13:35:28.457Z,5.78
2022-11-03T13:37:56.759Z,4.82
2022-11-03T13:43:15.400Z,5.43
2022-11-03T13:45:43.790Z,5.95
2022-11-03T13:51:02.139Z,6.82
2022-11-03T13:56:21.947Z,6.22
2022-11-03T14:04:45.263Z,5.63
2022-11-03T14:07:13.886Z,5.15
2022-11-03T14:09:42.144Z,4.60
2022-11-03T14:12:28.039Z,4.97
2022-11-03T14:14:57.642Z,4.97
2022-11-03T14:17:27.473Z,5.00
2022-11-03T14:20:02.560Z,6.00
2022-11-03T14:22:32.645Z,5.05
2022-11-03T14:25:01.156Z,5.28
2022-11-03T14:27:30.359Z,4.95
2022-11-03T14:29:59.919Z,5.10
2022-11-03T14:32:28.213Z,5.18
2022-11-03T14:34:56.901Z,4.43
2022-11-03T14:37:25.807Z,5.03
2022-11-03T14:39:54.089Z,5.03
2022-11-03T14:42:21.812Z,5.85
2022-11-03T14:44:50.073Z,5.38
2022-11-03T14:47:22.018Z,5.25
2022-11-03T14:49:50.402Z,4.93
2022-11-03T14:52:19.649Z,4.85
2022-11-03T14:54:48.459Z,4.78
2022-11-03T14:57:17.707Z,4.88
2022-11-03T14:59:49.285Z,4.75
2022-11-03T15:02:22.878Z,4.57
2022-11-03T15:04:51.905Z,4.28
2022-11-03T15:07:20.421Z,5.28
2022-11-03T15:09:48.746Z,5.38
2022-11-03T15:12:17.390Z,4.38
2022-11-03T15:14:46.295Z,4.47
2022-11-03T15:17:15.036Z,5.85
2022-11-03T15:19:44.686Z,4.93
2022-11-03T15:22:13.660Z,4.40
2022-11-03T15:27:30.455Z,4.77
2022-11-03T15:29:59.526Z,4.83
2022-11-03T15:32:32.622Z,4.40
2022-11-03T15:35:06.620Z,4.73
2022-11-03T15:37:34.778Z,4.60
2022-11-03T15:40:03.796Z,4.10
2022-11-03T15:42:32.267Z,4.83
2022-11-03T15:45:00.845Z,4.43
2022-11-03T15:47:29.449Z,4.73
2022-11-03T15:49:57.871Z,4.80
2022-11-03T15:52:28.552Z,4.80
2022-11-03T15:54:56.963Z,4.73
2022-11-03T15:57:25.553Z,5.30
2022-11-03T15:59:56.856Z,4.03
2022-11-03T16:02:41.046Z,5.07
2022-11-03T16:05:11.270Z,4.50
2022-11-03T16:07:41.258Z,4.90
2022-11-03T16:10:10.282Z,4.57
2022-11-03T16:12:38.935Z,4.93
2022-11-03T16:15:08.665Z,4.80
2022-11-03T16:17:40.184Z,4.77
2022-11-03T16:20:13.061Z,4.27
2022-11-03T16:22:43.097Z,4.53
2022-11-03T16:25:13.415Z,4.33
2022-11-03T16:27:43.368Z,4.33
2022-11-03T16:30:12.779Z,5.03
2022-11-03T16:32:40.981Z,5.20
2022-11-03T16:35:09.895Z,4.90
2022-11-03T16:37:38.775Z,4.50
2022-11-03T16:40:12.528Z,4.70
2022-11-03T16:42:44.806Z,4.63
2022-11-03T16:45:18.742Z,4.43
2022-11-03T16:47:47.648Z,4.43
2022-11-03T16:50:16.496Z,4.47
2022-11-03T16:52:44.956Z,4.80
2022-11-03T16:55:15.399Z,4.43
2022-11-03T16:57:44.481Z,4.10
2022-11-03T17:00:15.672Z,3.93
2022-11-03T17:02:44.439Z,4.40
2022-11-03T17:05:13.776Z,4.13
2022-11-03T17:07:41.867Z,4.47
2022-11-03T17:10:11.455Z,4.30
2022-11-03T17:12:41.132Z,4.57
2022-11-03T17:15:10.166Z,4.53
2022-11-03T17:17:39.118Z,4.43
2022-11-03T17:20:09.020Z,4.63
2022-11-03T17:22:38.098Z,5.00
2022-11-03T17:25:07.901Z,4.47
2022-11-03T17:27:43.072Z,4.97
2022-11-03T17:30:15.847Z,4.40
2022-11-03T17:32:45.118Z,4.23
2022-11-03T17:35:21.317Z,4.27
2022-11-03T17:37:51.140Z,4.00
2022-11-03T17:40:21.605Z,5.10
2022-11-03T17:42:51.943Z,5.00
2022-11-03T17:45:24.200Z,4.80
2022-11-03T17:47:53.010Z,4.40
2022-11-03T17:50:23.715Z,4.77
2022-11-03T17:52:52.709Z,4.53
2022-11-03T17:55:26.505Z,5.13
2022-11-03T17:57:57.398Z,4.60
2022-11-03T18:00:26.284Z,5.03
2022-11-03T18:02:57.228Z,4.80
2022-11-03T18:05:28.757Z,4.90
2022-11-03T18:07:57.872Z,4.93
2022-11-03T18:10:27.537Z,4.93
2022-11-03T18:13:21.072Z,5.13
2022-11-03T18:15:52.893Z,5.00
2022-11-03T18:18:26.922Z,5.57
2022-11-03T18:20:56.351Z,5.63
2022-11-03T18:23:26.541Z,5.60
2022-11-03T18:25:56.458Z,5.80
2022-11-03T18:28:26.883Z,5.47
2022-11-03T18:30:57.519Z,6.07
2022-11-03T18:33:28.431Z,6.40
2022-11-03T18:35:57.051Z,5.97
2022-11-03T18:38:27.114Z,6.00
2022-11-03T18:40:56.103Z,6.00
2022-11-03T18:43:27.903Z,5.90
2022-11-03T18:45:57.560Z,5.90
2022-11-03T18:48:26.384Z,5.67
2022-11-03T18:50:57.005Z,5.50
2022-11-03T18:53:28.484Z,6.00
2022-11-03T18:56:00.906Z,5.50
2022-11-03T18:58:31.223Z,6.37
2022-11-03T19:01:00.296Z,6.50
2022-11-03T19:03:29.516Z,5.87
2022-11-03T19:05:58.383Z,6.10
2022-11-03T19:08:30.134Z,5.80
2022-11-03T19:11:03.761Z,5.87
2022-11-03T19:13:36.841Z,6.43
2022-11-03T19:16:13.747Z,5.97
2022-11-03T19:18:43.270Z,6.00
2022-11-03T19:21:16.136Z,5.57
2022-11-03T19:23:47.950Z,6.23
2022-11-03T19:26:21.611Z,6.03
2022-11-03T19:28:54.349Z,6.63
2022-11-03T19:31:26.198Z,5.97
2022-11-03T19:33:57.980Z,5.83
2022-11-03T19:36:27.743Z,6.13
2022-11-03T19:38:56.667Z,6.20
2022-11-03T19:41:43.000Z,6.13
2022-11-03T19:44:14.428Z,5.83
2022-11-03T19:46:43.241Z,5.63
2022-11-03T19:49:15.657Z,5.80
2022-11-03T19:51:44.264Z,5.50
2022-11-03T19:54:17.759Z,5.83
2022-11-03T19:56:47.739Z,5.87
2022-11-03T19:59:19.307Z,5.67
2022-11-03T20:01:49.909Z,5.67
2022-11-03T20:04:18.683Z,5.77
2022-11-03T20:06:47.549Z,5.43
2022-11-03T20:09:19.168Z,6.13
2022-11-03T20:11:48.092Z,5.40
2022-11-03T20:14:21.965Z,5.87
2022-11-03T20:16:50.903Z,6.30
2022-11-03T20:19:19.334Z,6.13
2022-11-03T20:21:47.752Z,5.60
2022-11-03T20:24:18.920Z,5.80
2022-11-03T20:26:47.308Z,5.93
2022-11-03T20:29:17.876Z,6.37
2022-11-03T20:31:46.336Z,5.97
2022-11-03T20:34:15.401Z,6.07
2022-11-03T20:36:44.126Z,6.03
2022-11-03T20:39:15.023Z,6.07
2022-11-03T20:41:47.034Z,5.90
2022-11-03T20:44:15.893Z,6.60
2022-11-03T20:46:45.708Z,6.57
2022-11-03T20:49:14.485Z,6.00
2022-11-03T20:51:45.384Z,6.67
2022-11-03T20:54:16.605Z,5.40
2022-11-03T20:56:46.103Z,7.40
2022-11-03T20:59:16.858Z,6.13
2022-11-03T21:01:46.899Z,6.57
2022-11-03T21:04:17.173Z,6.97
2022-11-03T21:06:45.965Z,7.30
2022-11-03T21:09:15.298Z,6.77
2022-11-03T21:11:44.052Z,7.73
2022-11-03T21:14:17.104Z,6.90
2022-11-03T21:17:04.278Z,7.07
2022-11-03T21:19:56.384Z,6.37
2022-11-03T21:25:25.017Z,6.67
2022-11-03T21:27:54.855Z,7.13
2022-11-03T21:30:24.455Z,9.13
2022-11-03T21:32:54.269Z,9.67
2022-11-03T21:35:23.299Z,8.10
2022-11-03T21:37:51.862Z,8.17
2022-11-03T21:40:20.350Z,8.70
2022-11-03T21:43:06.459Z,8.37
2022-11-03T21:45:34.925Z,8.30
2022-11-03T21:48:22.737Z,8.10
2022-11-03T21:50:51.953Z,7.87
2022-11-03T21:53:20.417Z,8.33
2022-11-03T21:55:49.624Z,7.17
2022-11-03T21:58:18.120Z,8.73
2022-11-03T22:00:47.468Z,8.50
2022-11-03T22:03:17.120Z,8.13
2022-11-03T22:05:45.555Z,7.97
2022-11-03T22:08:14.402Z,7.97
2022-11-03T22:10:42.925Z,8.27
2022-11-03T22:13:11.975Z,8.07
2022-11-03T22:16:00.898Z,8.00
2022-11-03T22:18:31.210Z,7.63
2022-11-03T22:21:17.171Z,7.70
2022-11-03T22:24:08.465Z,7.70
2022-11-03T22:26:54.677Z,7.43
2022-11-03T22:29:40.642Z,7.43
2022-11-03T22:32:14.996Z,7.37
2022-11-03T22:35:02.007Z,7.03
2022-11-03T22:40:15.407Z,6.83
2022-11-03T22:42:57.828Z,6.20
2022-11-03T22:45:44.094Z,7.33
2022-11-03T22:48:12.868Z,6.60
2022-11-03T22:50:42.532Z,6.50
2022-11-03T22:53:28.796Z,6.57
2022-11-03T22:55:57.320Z,6.07
2022-11-03T22:58:30.221Z,6.67
2022-11-03T23:00:59.235Z,6.23
2022-11-03T23:03:27.785Z,5.53
2022-11-03T23:06:01.651Z,5.57
2022-11-03T23:08:32.585Z,5.50
2022-11-03T23:11:09.632Z,5.60
2022-11-03T23:13:38.473Z,6.30
2022-11-03T23:16:14.618Z,5.63
2022-11-03T23:19:00.647Z,6.20
2022-11-03T23:21:31.170Z,5.53
2022-11-03T23:24:17.281Z,6.30
2022-11-03T23:26:46.068Z,5.77
2022-11-03T23:29:15.299Z,5.40
2022-11-03T23:31:44.580Z,6.37
2022-11-03T23:34:14.432Z,6.60
2022-11-03T23:36:44.807Z,6.03
2022-11-03T23:39:15.325Z,5.93
2022-11-03T23:41:44.307Z,6.27
2022-11-03T23:44:13.370Z,5.87
2022-11-03T23:46:59.641Z,5.80
2022-11-03T23:49:28.309Z,5.43
2022-11-03T23:51:58.849Z,5.50
2022-11-03T23:54:27.440Z,5.97
2022-11-03T23:57:13.638Z,5.87
2022-11-03T23:59:42.201Z,5.63
